createdAt,value
2022-10-11T00:01:19.822Z,7.54
2022-10-11T00:03:46.322Z,7.52
2022-10-11T00:06:12.816Z,7.47
2022-10-11T00:08:39.310Z,7.46
2022-10-11T00:11:07.462Z,7.41
2022-10-11T00:13:34.456Z,7.38
2022-10-11T00:16:01.153Z,7.36
2022-10-11T00:18:27.856Z,7.34
2022-10-11T00:21:05.268Z,7.32
2022-10-11T00:23:32.472Z,7.28
2022-10-11T00:26:00.845Z,7.25
2022-10-11T00:28:27.953Z,7.26
2022-10-11T00:30:54.518Z,7.26
2022-10-11T00:33:21.211Z,7.26
2022-10-11T00:35:48.839Z,7.26
2022-10-11T00:38:16.097Z,7.26
2022-10-11T00:40:42.911Z,7.25
2022-10-11T00:43:16.451Z,7.26
2022-10-11T00:45:58.088Z,7.28
2022-10-11T00:48:31.069Z,7.31
2022-10-11T00:50:59.979Z,7.34
2022-10-11T00:53:30.427Z,7.38
2022-10-11T00:56:05.466Z,7.40
2022-10-11T00:58:35.095Z,7.44
2022-10-11T01:01:02.071Z,7.46
2022-10-11T01:03:31.726Z,7.48
2022-10-11T01:05:58.368Z,7.51
2022-10-11T01:08:25.777Z,7.53
2022-10-11T01:10:52.516Z,7.56
2022-10-11T01:13:24.631Z,7.56
2022-10-11T01:16:04.878Z,7.57
2022-10-11T01:18:38.441Z,7.58
2022-10-11T01:21:13.757Z,7.59
2022-10-11T01:23:49.011Z,7.60
2022-10-11T01:26:40.578Z,7.60
2022-10-11T01:29:37.114Z,7.60
2022-10-11T01:32:15.352Z,7.57
2022-10-11T01:34:52.253Z,7.59
2022-10-11T01:37:37.046Z,7.57
2022-10-11T01:40:11.617Z,7.55
2022-10-11T01:42:40.323Z,7.54
2022-10-11T01:45:15.545Z,7.54
2022-10-11T01:47:42.676Z,7.52
2022-10-11T01:50:40.118Z,7.52
2022-10-11T01:53:12.690Z,7.48
2022-10-11T01:56:02.382Z,7.45
2022-10-11T01:58:47.395Z,7.40
2022-10-11T02:01:34.721Z,7.40
2022-10-11T02:04:12.190Z,7.40
2022-10-11T02:06:38.989Z,7.39
2022-10-11T02:09:43.897Z,7.36
2022-10-11T02:12:13.198Z,7.36
2022-10-11T02:14:44.462Z,7.37
2022-10-11T02:17:16.866Z,7.37
2022-10-11T02:19:51.799Z,7.36
2022-10-11T02:22:32.986Z,7.35
2022-10-11T02:25:05.329Z,7.37
2022-10-11T02:27:35.842Z,7.37
2022-10-11T02:30:05.086Z,7.36
2022-10-11T02:32:33.031Z,7.36
2022-10-11T02:35:02.090Z,7.38
2022-10-11T02:37:54.934Z,7.38
2022-10-11T02:40:28.028Z,7.38
2022-10-11T02:43:01.388Z,7.37
2022-10-11T02:45:33.795Z,7.34
2022-10-11T02:48:01.022Z,7.28
2022-10-11T02:50:28.043Z,7.27
2022-10-11T02:52:54.570Z,7.24
2022-10-11T02:55:21.306Z,7.20
2022-10-11T02:57:47.834Z,7.17
2022-10-11T03:00:15.323Z,7.13
2022-10-11T03:02:41.914Z,7.09
2022-10-11T03:05:09.117Z,7.05
2022-10-11T03:07:35.709Z,7.02
2022-10-11T03:10:02.467Z,6.98
2022-10-11T03:12:28.977Z,6.96
2022-10-11T03:14:55.568Z,6.94
2022-10-11T03:17:36.127Z,6.93
2022-10-11T03:20:04.891Z,6.95
2022-10-11T03:22:31.450Z,6.97
2022-10-11T03:25:03.376Z,6.97
2022-10-11T03:27:30.532Z,6.98
2022-10-11T03:29:57.813Z,6.96
2022-10-11T03:32:24.482Z,6.96
2022-10-11T03:34:50.979Z,6.93
2022-10-11T03:37:17.671Z,6.90
2022-10-11T03:39:45.648Z,6.89
2022-10-11T03:42:13.559Z,6.86
2022-10-11T03:44:41.701Z,6.83
2022-10-11T03:47:08.996Z,6.80
2022-10-11T03:49:37.727Z,6.77
2022-10-11T03:52:07.930Z,6.75
2022-10-11T03:54:34.434Z,6.73
2022-10-11T03:57:01.326Z,6.71
2022-10-11T03:59:28.210Z,6.67
2022-10-11T04:01:54.770Z,6.61
2022-10-11T04:04:21.353Z,6.58
2022-10-11T04:06:47.873Z,6.55
2022-10-11T04:09:14.378Z,6.51
2022-10-11T04:11:40.897Z,6.50
2022-10-11T04:14:07.388Z,6.47
2022-10-11T04:16:35.255Z,6.44
2022-10-11T04:19:01.754Z,6.39
2022-10-11T04:21:28.256Z,6.36
2022-10-11T04:23:54.851Z,6.34
2022-10-11T04:26:21.533Z,6.30
2022-10-11T04:28:48.142Z,6.30
2022-10-11T04:31:14.846Z,6.29
2022-10-11T04:33:41.509Z,6.25
2022-10-11T04:36:08.748Z,6.24
2022-10-11T04:38:35.672Z,6.24
2022-10-11T04:41:10.029Z,6.20
2022-10-11T04:43:36.833Z,6.16
2022-10-11T04:46:04.057Z,6.15
2022-10-11T04:48:31.119Z,6.13
2022-10-11T04:50:57.729Z,6.12
2022-10-11T04:53:24.340Z,6.09
2022-10-11T04:56:02.884Z,6.06
2022-10-11T04:58:30.937Z,6.02
2022-10-11T05:00:57.793Z,5.98
2022-10-11T05:03:25.023Z,5.93
2022-10-11T05:05:52.891Z,5.92
2022-10-11T05:08:20.389Z,5.91
2022-10-11T05:11:01.235Z,5.89
2022-10-11T05:13:28.934Z,5.87
2022-10-11T05:15:55.480Z,5.83
2022-10-11T05:18:22.723Z,5.82
2022-10-11T05:20:50.394Z,5.85
2022-10-11T05:23:16.895Z,5.82
2022-10-11T05:25:43.431Z,5.80
2022-10-11T05:28:10.027Z,5.79
2022-10-11T05:30:36.559Z,5.77
2022-10-11T05:33:03.235Z,5.75
2022-10-11T05:35:29.779Z,5.75
2022-10-11T05:37:56.367Z,5.77
2022-10-11T05:40:22.892Z,5.79
2022-10-11T05:42:49.404Z,5.80
2022-10-11T05:45:15.914Z,5.82
2022-10-11T05:47:42.429Z,5.82
2022-10-11T05:50:09.390Z,5.86
2022-10-11T05:52:35.895Z,5.87
2022-10-11T05:55:03.398Z,5.90
2022-10-11T05:57:29.936Z,5.92
2022-10-11T05:59:56.690Z,5.96
2022-10-11T06:02:23.219Z,5.99
2022-10-11T06:04:49.709Z,6.00
2022-10-11T06:07:16.241Z,6.02
2022-10-11T06:09:42.733Z,6.00
2022-10-11T06:12:09.253Z,6.01
2022-10-11T06:14:36.014Z,6.03
2022-10-11T06:17:02.546Z,6.04
2022-10-11T06:19:29.051Z,6.05
2022-10-11T06:21:55.588Z,6.08
2022-10-11T06:24:22.215Z,6.10
2022-10-11T06:26:49.308Z,6.11
2022-10-11T06:29:15.967Z,6.13
2022-10-11T06:31:42.586Z,6.15
2022-10-11T06:34:09.555Z,6.16
2022-10-11T06:36:36.243Z,6.18
2022-10-11T06:39:03.073Z,6.18
2022-10-11T06:41:30.873Z,6.19
2022-10-11T06:43:57.907Z,6.20
2022-10-11T06:46:26.157Z,6.23
2022-10-11T06:48:53.945Z,6.25
2022-10-11T06:51:21.960Z,6.28
2022-10-11T06:53:56.739Z,6.31
2022-10-11T06:56:23.777Z,6.35
2022-10-11T06:58:51.292Z,6.37
2022-10-11T07:01:20.355Z,6.40
2022-10-11T07:03:48.299Z,6.46
2022-10-11T07:06:18.177Z,6.53
2022-10-11T07:08:45.040Z,6.56
2022-10-11T07:11:14.896Z,6.61
2022-10-11T07:13:41.998Z,6.66
2022-10-11T07:16:11.886Z,6.72
2022-10-11T07:18:39.074Z,6.76
2022-10-11T07:21:08.251Z,6.80
2022-10-11T07:23:34.982Z,6.88
2022-10-11T07:26:01.734Z,6.94
2022-10-11T07:28:30.587Z,6.98
2022-10-11T07:30:58.484Z,7.11
2022-10-11T07:33:25.281Z,7.28
2022-10-11T07:35:51.893Z,7.41
2022-10-11T07:38:18.452Z,7.44
2022-10-11T07:40:46.485Z,7.55
2022-10-11T07:43:13.917Z,7.61
2022-10-11T07:45:41.852Z,7.61
2022-10-11T07:48:08.943Z,7.65
2022-10-11T07:51:05.298Z,7.73
2022-10-11T07:53:31.983Z,7.85
2022-10-11T07:56:02.675Z,7.87
2022-10-11T07:58:29.512Z,7.92
2022-10-11T08:00:56.071Z,7.97
2022-10-11T08:03:22.877Z,8.04
2022-10-11T08:05:49.461Z,8.11
2022-10-11T08:08:16.016Z,8.18
2022-10-11T08:10:42.523Z,8.24
2022-10-11T08:13:09.045Z,8.32
2022-10-11T08:15:35.664Z,8.46
2022-10-11T08:18:02.189Z,8.58
2022-10-11T08:20:31.108Z,8.65
2022-10-11T08:22:57.833Z,8.72
2022-10-11T08:25:24.425Z,8.87
2022-10-11T08:27:50.936Z,9.08
2022-10-11T08:30:17.575Z,9.24
2022-10-11T08:32:44.126Z,9.40
2022-10-11T08:35:10.618Z,9.63
2022-10-11T08:37:37.260Z,9.76
2022-10-11T08:40:05.913Z,9.87
2022-10-11T08:42:41.599Z,10.01
2022-10-11T08:45:16.931Z,10.16
2022-10-11T08:47:45.314Z,10.32
2022-10-11T08:50:19.880Z,10.50
2022-10-11T08:52:52.578Z,10.66
2022-10-11T08:55:26.339Z,10.83
2022-10-11T08:57:56.346Z,10.90
2022-10-11T09:00:25.212Z,11.07
2022-10-11T09:03:19.532Z,11.19
2022-10-11T09:05:55.945Z,11.27
2022-10-11T09:08:53.342Z,11.30
2022-10-11T09:11:46.870Z,11.40
2022-10-11T09:14:51.142Z,11.50
2022-10-11T09:17:26.219Z,11.58
2022-10-11T09:20:11.645Z,11.76
2022-10-11T09:22:55.152Z,11.89
2022-10-11T09:25:30.415Z,11.97
2022-10-11T09:28:03.817Z,12.11
2022-10-11T09:30:30.686Z,12.14
2022-10-11T09:33:13.446Z,12.22
2022-10-11T09:35:44.471Z,12.27
2022-10-11T09:38:38.611Z,12.37
2022-10-11T09:41:14.633Z,12.46
2022-10-11T09:43:44.981Z,12.58
2022-10-11T09:46:34.195Z,12.63
2022-10-11T09:49:04.219Z,12.74
2022-10-11T09:51:31.353Z,12.73
2022-10-11T09:53:57.892Z,12.82
2022-10-11T09:56:26.402Z,12.73
2022-10-11T09:59:14.695Z,12.81
2022-10-11T10:01:41.291Z,12.84
2022-10-11T10:04:11.475Z,12.88
2022-10-11T10:06:40.059Z,12.95
2022-10-11T10:09:26.912Z,12.90
2022-10-11T10:11:55.568Z,13.03
2022-10-11T10:14:30.525Z,13.00
2022-10-11T10:17:14.626Z,13.05
2022-10-11T10:19:49.323Z,13.12
2022-10-11T10:22:20.631Z,13.10
2022-10-11T10:24:49.264Z,13.16
2022-10-11T10:27:21.175Z,13.21
2022-10-11T10:30:03.136Z,13.31
2022-10-11T10:32:47.562Z,13.42
2022-10-11T10:35:24.036Z,13.37
2022-10-11T10:37:56.715Z,13.49
2022-10-11T10:40:28.984Z,13.41
2022-10-11T10:42:55.503Z,13.54
2022-10-11T10:45:29.435Z,13.59
2022-10-11T10:48:09.307Z,13.65
2022-10-11T10:50:52.546Z,13.81
2022-10-11T10:53:37.639Z,13.76
2022-10-11T10:56:19.017Z,13.82
2022-10-11T10:59:30.586Z,13.82
2022-10-11T11:02:40.805Z,13.87
2022-10-11T11:05:48.423Z,13.90
2022-10-11T11:08:30.157Z,13.92
2022-10-11T11:11:08.631Z,13.92
2022-10-11T11:13:48.477Z,13.71
2022-10-11T11:16:20.972Z,13.76
2022-10-11T11:19:02.983Z,13.88
2022-10-11T11:21:41.765Z,13.68
2022-10-11T11:24:44.143Z,13.83
2022-10-11T11:27:31.281Z,13.85
2022-10-11T11:30:10.206Z,13.68
2022-10-11T11:32:48.723Z,13.69
2022-10-11T11:35:17.991Z,13.76
2022-10-11T11:37:48.271Z,13.77
2022-10-11T11:40:27.168Z,13.85
2022-10-11T11:43:00.940Z,13.90
2022-10-11T11:45:37.480Z,13.96
2022-10-11T11:48:13.377Z,13.95
2022-10-11T11:50:46.245Z,13.88
2022-10-11T11:53:22.854Z,13.86
2022-10-11T11:55:59.130Z,13.81
2022-10-11T11:58:38.923Z,13.90
2022-10-11T12:01:36.046Z,13.91
2022-10-11T12:04:08.695Z,13.81
2022-10-11T12:06:47.674Z,14.04
2022-10-11T12:09:23.602Z,14.11
2022-10-11T12:11:57.291Z,14.22
2022-10-11T12:14:43.983Z,14.35
2022-10-11T12:17:16.374Z,14.33
2022-10-11T12:20:02.270Z,14.43
2022-10-11T12:22:28.927Z,14.31
2022-10-11T12:24:57.159Z,14.34
2022-10-11T12:27:57.071Z,14.43
2022-10-11T12:30:48.640Z,14.57
2022-10-11T12:33:26.127Z,14.66
2022-10-11T12:35:55.552Z,14.80
2022-10-11T12:38:25.134Z,14.78
2022-10-11T12:41:03.084Z,14.88
2022-10-11T12:43:36.370Z,14.90
2022-10-11T12:46:33.647Z,15.03
2022-10-11T12:49:36.273Z,15.09
2022-10-11T12:52:05.080Z,15.14
2022-10-11T12:55:29.799Z,15.07
2022-10-11T12:58:30.557Z,15.00
2022-10-11T13:00:57.896Z,14.97
2022-10-11T13:03:42.697Z,15.13
2022-10-11T13:06:15.338Z,15.19
2022-10-11T13:08:45.144Z,15.17
2022-10-11T13:11:19.079Z,15.15
2022-10-11T13:13:52.263Z,15.03
2022-10-11T13:16:22.400Z,14.88
2022-10-11T13:18:53.802Z,14.94
2022-10-11T13:21:28.370Z,14.92
2022-10-11T13:23:58.976Z,14.91
2022-10-11T13:26:28.258Z,15.00
2022-10-11T13:28:55.594Z,15.04
2022-10-11T13:31:24.207Z,15.06
2022-10-11T13:33:57.288Z,14.90
2022-10-11T13:36:26.827Z,14.85
2022-10-11T13:38:59.192Z,14.68
2022-10-11T13:41:30.626Z,14.69
2022-10-11T13:43:59.096Z,14.63
2022-10-11T13:46:27.996Z,14.51
2022-10-11T13:49:06.795Z,14.53
2022-10-11T13:51:37.743Z,14.55
2022-10-11T13:54:09.469Z,14.54
2022-10-11T13:56:47.481Z,14.52
2022-10-11T13:59:23.001Z,14.47
2022-10-11T14:01:55.290Z,14.37
2022-10-11T14:04:24.101Z,14.28
2022-10-11T14:06:56.681Z,14.15
2022-10-11T14:09:30.892Z,14.11
2022-10-11T14:12:28.239Z,14.07
2022-10-11T14:14:54.816Z,14.07
2022-10-11T14:17:32.555Z,13.96
2022-10-11T14:20:11.900Z,14.01
2022-10-11T14:22:39.023Z,14.00
2022-10-11T14:25:05.942Z,13.97
2022-10-11T14:27:32.750Z,13.94
2022-10-11T14:30:25.200Z,13.96
2022-10-11T14:32:49.113Z,13.86
2022-10-11T14:35:23.332Z,13.84
2022-10-11T14:37:50.282Z,13.80
2022-10-11T14:40:20.680Z,13.76
2022-10-11T14:42:47.789Z,13.71
2022-10-11T14:45:14.336Z,13.71
2022-10-11T14:47:43.122Z,13.67
2022-10-11T14:50:54.363Z,13.65
2022-10-11T14:53:21.164Z,13.60
2022-10-11T14:55:48.300Z,13.62
2022-10-11T14:58:16.706Z,13.60
2022-10-11T15:00:43.720Z,13.54
2022-10-11T15:03:10.447Z,13.52
2022-10-11T15:05:37.348Z,13.52
2022-10-11T15:08:05.846Z,13.43
2022-10-11T15:10:40.433Z,13.44
2022-10-11T15:13:08.240Z,13.41
2022-10-11T15:15:40.646Z,13.41
2022-10-11T15:18:12.292Z,13.43
2022-10-11T15:20:42.610Z,13.44
2022-10-11T15:23:10.567Z,13.44
2022-10-11T15:25:38.906Z,13.41
2022-10-11T15:28:06.731Z,13.35
2022-10-11T15:30:40.961Z,13.30
2022-10-11T15:33:08.126Z,13.32
2022-10-11T15:35:34.617Z,13.39
2022-10-11T15:38:01.198Z,13.44
2022-10-11T15:40:35.815Z,13.49
2022-10-11T15:43:03.756Z,13.52
2022-10-11T15:45:30.462Z,13.50
2022-10-11T15:47:57.169Z,13.51
2022-10-11T15:50:36.811Z,13.53
2022-10-11T15:53:05.698Z,13.48
2022-10-11T15:55:34.021Z,13.51
2022-10-11T15:58:04.174Z,13.51
2022-10-11T16:00:30.797Z,13.53
2022-10-11T16:02:59.211Z,13.53
2022-10-11T16:05:27.919Z,13.48
2022-10-11T16:07:54.936Z,13.44
2022-10-11T16:10:21.650Z,13.39
2022-10-11T16:12:48.289Z,13.35
2022-10-11T16:15:15.528Z,13.31
2022-10-11T16:17:42.123Z,13.27
2022-10-11T16:20:09.090Z,13.20
2022-10-11T16:22:36.009Z,13.15
2022-10-11T16:25:04.618Z,13.10
2022-10-11T16:27:31.289Z,13.04
2022-10-11T16:29:58.236Z,13.03
2022-10-11T16:32:25.446Z,12.94
2022-10-11T16:34:51.990Z,12.85
2022-10-11T16:37:19.012Z,12.81
2022-10-11T16:39:45.936Z,12.73
2022-10-11T16:42:12.500Z,12.68
2022-10-11T16:44:39.381Z,12.59
2022-10-11T16:47:06.625Z,12.56
2022-10-11T16:49:33.566Z,12.50
2022-10-11T16:52:02.276Z,12.39
2022-10-11T16:54:30.298Z,12.28
2022-10-11T16:56:57.862Z,12.26
2022-10-11T16:59:24.623Z,12.17
2022-10-11T17:01:51.517Z,12.12
2022-10-11T17:04:18.299Z,12.07
2022-10-11T17:06:44.955Z,11.97
2022-10-11T17:09:11.926Z,11.87
2022-10-11T17:11:38.487Z,11.84
2022-10-11T17:14:06.189Z,11.79
2022-10-11T17:16:32.897Z,11.71
2022-10-11T17:18:59.577Z,11.62
2022-10-11T17:21:26.085Z,11.50
2022-10-11T17:23:53.180Z,11.52
2022-10-11T17:26:27.734Z,11.46
2022-10-11T17:28:55.922Z,11.35
2022-10-11T17:31:23.937Z,11.21
2022-10-11T17:33:51.215Z,11.15
2022-10-11T17:36:25.190Z,11.12
2022-10-11T17:38:52.323Z,11.05
2022-10-11T17:41:19.312Z,11.00
2022-10-11T17:43:46.735Z,10.97
2022-10-11T17:46:14.883Z,10.88
2022-10-11T17:48:41.878Z,10.82
2022-10-11T17:51:15.417Z,10.74
2022-10-11T17:53:42.088Z,10.66
2022-10-11T17:56:12.029Z,10.62
2022-10-11T17:58:39.180Z,10.53
2022-10-11T18:01:09.777Z,10.48
2022-10-11T18:03:36.803Z,10.40
2022-10-11T18:06:08.209Z,10.34
2022-10-11T18:08:40.221Z,10.29
2022-10-11T18:11:19.790Z,10.21
2022-10-11T18:13:51.546Z,10.13
2022-10-11T18:16:23.035Z,10.07
2022-10-11T18:18:49.997Z,10.00
2022-10-11T18:21:18.424Z,9.96
2022-10-11T18:23:45.782Z,9.92
2022-10-11T18:26:15.347Z,9.86
2022-10-11T18:28:43.053Z,9.80
2022-10-11T18:31:15.868Z,9.71
2022-10-11T18:33:45.534Z,9.65
2022-10-11T18:36:16.558Z,9.59
2022-10-11T18:38:46.704Z,9.52
2022-10-11T18:41:20.048Z,9.44
2022-10-11T18:43:55.234Z,9.40
2022-10-11T18:46:23.238Z,9.34
2022-10-11T18:48:52.214Z,9.31
2022-10-11T18:51:20.422Z,9.27
2022-10-11T18:53:47.688Z,9.24
2022-10-11T18:56:16.049Z,9.17
2022-10-11T18:58:44.746Z,9.12
2022-10-11T19:01:16.013Z,9.05
2022-10-11T19:03:43.740Z,9.03
2022-10-11T19:06:17.199Z,8.97
2022-10-11T19:08:48.385Z,8.92
2022-10-11T19:11:16.508Z,8.86
2022-10-11T19:13:43.902Z,8.82
2022-10-11T19:16:13.568Z,8.77
2022-10-11T19:18:44.303Z,8.71
2022-10-11T19:21:13.145Z,8.66
2022-10-11T19:23:44.277Z,8.64
2022-10-11T19:26:15.224Z,8.60
2022-10-11T19:28:42.511Z,8.55
2022-10-11T19:31:13.095Z,8.53
2022-10-11T19:33:39.723Z,8.47
2022-10-11T19:36:06.962Z,8.43
2022-10-11T19:38:35.079Z,8.38
2022-10-11T19:41:03.028Z,8.37
2022-10-11T19:43:29.602Z,8.34
2022-10-11T19:46:08.377Z,8.31
2022-10-11T19:48:39.298Z,8.27
2022-10-11T19:51:12.148Z,8.24
2022-10-11T19:53:38.803Z,8.21
2022-10-11T19:56:09.447Z,8.18
2022-10-11T19:58:36.000Z,8.17
2022-10-11T20:01:08.261Z,8.13
2022-10-11T20:03:35.100Z,8.12
2022-10-11T20:06:07.467Z,8.09
2022-10-11T20:08:35.750Z,8.05
2022-10-11T20:11:05.531Z,8.00
2022-10-11T20:13:34.998Z,7.96
2022-10-11T20:16:13.783Z,7.93
2022-10-11T20:18:41.310Z,7.88
2022-10-11T20:21:13.067Z,7.87
2022-10-11T20:26:21.175Z,7.77
2022-10-11T20:28:54.994Z,7.74
2022-10-11T20:31:28.228Z,7.70
2022-10-11T20:33:57.320Z,7.67
2022-10-11T20:36:26.749Z,7.67
2022-10-11T20:38:53.312Z,7.60
2022-10-11T20:41:28.367Z,7.58
2022-10-11T20:43:57.226Z,7.55
2022-10-11T20:46:28.035Z,7.53
2022-10-11T20:49:01.291Z,7.53
2022-10-11T20:51:32.742Z,7.50
2022-10-11T20:54:00.953Z,7.47
2022-10-11T20:56:28.534Z,7.44
2022-10-11T20:58:56.301Z,7.41
2022-10-11T21:01:28.715Z,7.38
2022-10-11T21:03:59.274Z,7.35
2022-10-11T21:06:27.208Z,7.30
2022-10-11T21:08:59.068Z,7.26
2022-10-11T21:11:31.460Z,7.24
2022-10-11T21:14:00.243Z,7.20
2022-10-11T21:16:27.375Z,7.18
2022-10-11T21:18:57.399Z,7.16
2022-10-11T21:21:25.231Z,7.13
2022-10-11T21:24:00.724Z,7.11
2022-10-11T21:26:28.729Z,7.07
2022-10-11T21:28:55.596Z,7.05
2022-10-11T21:31:23.189Z,7.02
2022-10-11T21:33:49.804Z,6.99
2022-10-11T21:36:21.519Z,6.95
2022-10-11T21:38:49.050Z,6.93
2022-10-11T21:41:18.471Z,6.90
2022-10-11T21:43:45.733Z,6.87
2022-10-11T21:46:15.926Z,6.85
2022-10-11T21:48:42.457Z,6.81
2022-10-11T21:51:15.246Z,6.78
2022-10-11T21:53:41.831Z,6.75
2022-10-11T21:56:08.707Z,6.73
2022-10-11T21:58:35.230Z,6.70
2022-10-11T22:01:01.759Z,6.67
2022-10-11T22:03:28.282Z,6.65
2022-10-11T22:05:54.844Z,6.62
2022-10-11T22:08:21.404Z,6.59
2022-10-11T22:10:57.317Z,6.55
2022-10-11T22:13:24.847Z,6.51
2022-10-11T22:15:51.524Z,6.47
2022-10-11T22:18:18.072Z,6.46
2022-10-11T22:20:44.687Z,6.42
2022-10-11T22:23:11.699Z,6.41
2022-10-11T22:25:39.084Z,6.39
2022-10-11T22:28:06.669Z,6.36
2022-10-11T22:30:33.731Z,6.34
2022-10-11T22:33:00.246Z,6.31
2022-10-11T22:35:26.902Z,6.29
2022-10-11T22:37:53.471Z,6.28
2022-10-11T22:40:20.252Z,6.25
2022-10-11T22:42:46.871Z,6.22
2022-10-11T22:45:13.475Z,6.20
2022-10-11T22:47:39.950Z,6.16
2022-10-11T22:50:06.683Z,6.16
2022-10-11T22:52:33.163Z,6.13
2022-10-11T22:54:59.674Z,6.09
2022-10-11T22:57:26.163Z,6.08
2022-10-11T22:59:52.709Z,6.03
2022-10-11T23:02:19.201Z,6.02
2022-10-11T23:04:45.727Z,6.00
2022-10-11T23:07:12.252Z,5.99
2022-10-11T23:09:38.774Z,5.96
2022-10-11T23:12:05.556Z,5.96
2022-10-11T23:14:32.100Z,5.93
2022-10-11T23:16:58.617Z,5.90
2022-10-11T23:19:25.177Z,5.88
2022-10-11T23:21:51.724Z,5.86
2022-10-11T23:24:18.281Z,5.86
2022-10-11T23:26:44.759Z,5.83
2022-10-11T23:29:11.317Z,5.81
2022-10-11T23:31:37.801Z,5.78
2022-10-11T23:34:04.342Z,5.75
2022-10-11T23:36:30.844Z,5.74
2022-10-11T23:38:58.684Z,5.69
2022-10-11T23:41:28.878Z,5.68
2022-10-11T23:43:56.003Z,5.65
2022-10-11T23:46:22.671Z,5.64
2022-10-11T23:48:49.221Z,5.63
2022-10-11T23:51:16.597Z,5.63
2022-10-11T23:53:43.097Z,5.62
2022-10-11T23:56:11.321Z,5.58
2022-10-11T23:58:38.100Z,5.56
